sensor_id;sensor_type;location;lat;lon;timestamp;P1;durP1;ratioP1;P2;durP2;ratioP2
61397;SDS011;47267;48.130;-2.040;2023-06-04T00:01:35;5.28;;;3.35;;
61397;SDS011;47267;48.130;-2.040;2023-06-04T00:04:01;5.43;;;3.25;;
61397;SDS011;47267;48.130;-2.040;2023-06-04T00:06:27;6.22;;;3.60;;
61397;SDS011;47267;48.130;-2.040;2023-06-04T00:08:52;4.35;;;3.30;;
61397;SDS011;47267;48.130;-2.040;2023-06-04T00:11:18;5.05;;;3.42;;
61397;SDS011;47267;48.130;-2.040;2023-06-04T00:13:45;4.53;;;3.30;;
61397;SDS011;47267;48.130;-2.040;2023-06-04T00:16:10;4.07;;;2.97;;
61397;SDS011;47267;48.130;-2.040;2023-06-04T00:18:36;6.10;;;3.28;;
61397;SDS011;47267;48.130;-2.040;2023-06-04T00:21:02;5.28;;;3.13;;
61397;SDS011;47267;48.130;-2.040;2023-06-04T00:23:28;4.95;;;3.05;;
61397;SDS011;47267;48.130;-2.040;2023-06-04T00:25:53;4.43;;;3.05;;
61397;SDS011;47267;48.130;-2.040;2023-06-04T00:28:19;3.58;;;2.97;;
61397;SDS011;47267;48.130;-2.040;2023-06-04T00:30:45;4.20;;;3.10;;
61397;SDS011;47267;48.130;-2.040;2023-06-04T00:33:11;3.80;;;2.72;;
61397;SDS011;47267;48.130;-2.040;2023-06-04T00:35:37;4.00;;;3.17;;
61397;SDS011;47267;48.130;-2.040;2023-06-04T00:38:02;5.53;;;3.08;;
61397;SDS011;47267;48.130;-2.040;2023-06-04T00:40:28;4.72;;;2.80;;
61397;SDS011;47267;48.130;-2.040;2023-06-04T00:42:54;4.32;;;3.17;;
61397;SDS011;47267;48.130;-2.040;2023-06-04T00:45:20;4.10;;;2.75;;
61397;SDS011;47267;48.130;-2.040;2023-06-04T00:47:46;4.38;;;2.92;;
61397;SDS011;47267;48.130;-2.040;2023-06-04T00:50:12;4.55;;;3.03;;
61397;SDS011;47267;48.130;-2.040;2023-06-04T00:52:38;5.45;;;2.80;;
61397;SDS011;47267;48.130;-2.040;2023-06-04T00:55:04;3.95;;;2.88;;
61397;SDS011;47267;48.130;-2.040;2023-06-04T00:57:30;4.20;;;2.97;;
61397;SDS011;47267;48.130;-2.040;2023-06-04T00:59:56;4.15;;;2.90;;
61397;SDS011;47267;48.130;-2.040;2023-06-04T01:02:22;4.60;;;3.22;;
61397;SDS011;47267;48.130;-2.040;2023-06-04T01:07:44;4.88;;;2.97;;
61397;SDS011;47267;48.130;-2.040;2023-06-04T01:10:13;4.55;;;2.70;;
61397;SDS011;47267;48.130;-2.040;2023-06-04T01:12:40;4.20;;;2.72;;
61397;SDS011;47267;48.130;-2.040;2023-06-04T01:15:06;3.58;;;2.45;;
61397;SDS011;47267;48.130;-2.040;2023-06-04T01:17:43;3.85;;;2.90;;
61397;SDS011;47267;48.130;-2.040;2023-06-04T01:25:36;4.15;;;3.00;;
61397;SDS011;47267;48.130;-2.040;2023-06-04T01:28:14;3.63;;;2.85;;
61397;SDS011;47267;48.130;-2.040;2023-06-04T01:30:43;4.40;;;2.90;;
61397;SDS011;47267;48.130;-2.040;2023-06-04T01:33:15;4.10;;;2.55;;
61397;SDS011;47267;48.130;-2.040;2023-06-04T01:35:42;3.90;;;2.55;;
61397;SDS011;47267;48.130;-2.040;2023-06-04T01:38:09;3.13;;;2.25;;
61397;SDS011;47267;48.130;-2.040;2023-06-04T01:40:35;3.20;;;2.60;;
61397;SDS011;47267;48.130;-2.040;2023-06-04T01:43:01;3.95;;;2.47;;
61397;SDS011;47267;48.130;-2.040;2023-06-04T01:45:27;4.10;;;2.63;;
61397;SDS011;47267;48.130;-2.040;2023-06-04T01:47:54;4.10;;;2.50;;
61397;SDS011;47267;48.130;-2.040;2023-06-04T01:50:21;3.70;;;2.60;;
61397;SDS011;47267;48.130;-2.040;2023-06-04T01:52:47;4.95;;;2.78;;
61397;SDS011;47267;48.130;-2.040;2023-06-04T01:55:14;3.90;;;2.50;;
61397;SDS011;47267;48.130;-2.040;2023-06-04T01:57:41;3.05;;;2.72;;
61397;SDS011;47267;48.130;-2.040;2023-06-04T02:00:09;4.00;;;2.33;;
61397;SDS011;47267;48.130;-2.040;2023-06-04T02:02:37;3.30;;;2.58;;
61397;SDS011;47267;48.130;-2.040;2023-06-04T02:05:03;4.43;;;2.88;;
61397;SDS011;47267;48.130;-2.040;2023-06-04T02:07:33;4.10;;;2.90;;
61397;SDS011;47267;48.130;-2.040;2023-06-04T02:09:59;3.45;;;2.53;;
61397;SDS011;47267;48.130;-2.040;2023-06-04T02:12:25;3.92;;;2.65;;
61397;SDS011;47267;48.130;-2.040;2023-06-04T02:14:51;3.20;;;2.30;;
61397;SDS011;47267;48.130;-2.040;2023-06-04T02:17:16;3.65;;;2.78;;
61397;SDS011;47267;48.130;-2.040;2023-06-04T02:19:42;4.10;;;2.95;;
61397;SDS011;47267;48.130;-2.040;2023-06-04T02:22:18;4.97;;;2.80;;
61397;SDS011;47267;48.130;-2.040;2023-06-04T02:24:44;3.70;;;2.50;;
61397;SDS011;47267;48.130;-2.040;2023-06-04T02:27:11;3.35;;;2.20;;
61397;SDS011;47267;48.130;-2.040;2023-06-04T02:29:38;3.10;;;2.50;;
61397;SDS011;47267;48.130;-2.040;2023-06-04T02:32:05;4.25;;;2.40;;
61397;SDS011;47267;48.130;-2.040;2023-06-04T02:34:31;3.78;;;2.53;;
61397;SDS011;47267;48.130;-2.040;2023-06-04T02:36:58;3.67;;;2.70;;
61397;SDS011;47267;48.130;-2.040;2023-06-04T02:39:25;3.60;;;2.63;;
61397;SDS011;47267;48.130;-2.040;2023-06-04T02:41:50;4.07;;;2.40;;
61397;SDS011;47267;48.130;-2.040;2023-06-04T02:44:16;3.03;;;2.45;;
61397;SDS011;47267;48.130;-2.040;2023-06-04T02:46:43;3.40;;;2.35;;
61397;SDS011;47267;48.130;-2.040;2023-06-04T02:49:09;3.38;;;2.28;;
61397;SDS011;47267;48.130;-2.040;2023-06-04T02:51:34;3.78;;;2.80;;
61397;SDS011;47267;48.130;-2.040;2023-06-04T02:54:00;3.70;;;2.40;;
61397;SDS011;47267;48.130;-2.040;2023-06-04T02:56:26;3.10;;;2.67;;
61397;SDS011;47267;48.130;-2.040;2023-06-04T02:58:52;4.13;;;2.40;;
61397;SDS011;47267;48.130;-2.040;2023-06-04T03:01:20;2.90;;;2.22;;
61397;SDS011;47267;48.130;-2.040;2023-06-04T03:03:50;3.10;;;2.60;;
61397;SDS011;47267;48.130;-2.040;2023-06-04T03:06:16;3.70;;;2.70;;
61397;SDS011;47267;48.130;-2.040;2023-06-04T03:08:45;3.90;;;2.38;;
61397;SDS011;47267;48.130;-2.040;2023-06-04T03:11:10;3.83;;;2.67;;
61397;SDS011;47267;48.130;-2.040;2023-06-04T03:13:36;3.58;;;2.65;;
61397;SDS011;47267;48.130;-2.040;2023-06-04T03:16:03;3.00;;;2.25;;
61397;SDS011;47267;48.130;-2.040;2023-06-04T03:18:34;3.08;;;2.42;;
61397;SDS011;47267;48.130;-2.040;2023-06-04T03:21:04;2.63;;;2.15;;
61397;SDS011;47267;48.130;-2.040;2023-06-04T03:23:31;2.33;;;2.03;;
61397;SDS011;47267;48.130;-2.040;2023-06-04T03:25:57;3.63;;;2.60;;
61397;SDS011;47267;48.130;-2.040;2023-06-04T03:28:23;3.45;;;2.35;;
61397;SDS011;47267;48.130;-2.040;2023-06-04T03:30:48;3.13;;;2.13;;
61397;SDS011;47267;48.130;-2.040;2023-06-04T03:33:14;2.45;;;2.20;;
61397;SDS011;47267;48.130;-2.040;2023-06-04T03:35:40;2.88;;;2.10;;
61397;SDS011;47267;48.130;-2.040;2023-06-04T03:38:06;3.78;;;2.50;;
61397;SDS011;47267;48.130;-2.040;2023-06-04T03:40:32;3.83;;;2.45;;
61397;SDS011;47267;48.130;-2.040;2023-06-04T03:42:58;3.75;;;2.42;;
61397;SDS011;47267;48.130;-2.040;2023-06-04T03:45:25;3.15;;;2.33;;
61397;SDS011;47267;48.130;-2.040;2023-06-04T03:47:51;2.97;;;2.33;;
61397;SDS011;47267;48.130;-2.040;2023-06-04T03:50:17;6.00;;;2.35;;
61397;SDS011;47267;48.130;-2.040;2023-06-04T03:52:44;3.50;;;2.35;;
61397;SDS011;47267;48.130;-2.040;2023-06-04T03:55:09;3.58;;;2.30;;
61397;SDS011;47267;48.130;-2.040;2023-06-04T03:57:36;4.35;;;2.30;;
61397;SDS011;47267;48.130;-2.040;2023-06-04T04:00:04;2.63;;;1.92;;
61397;SDS011;47267;48.130;-2.040;2023-06-04T04:02:31;3.38;;;2.50;;
61397;SDS011;47267;48.130;-2.040;2023-06-04T04:04:56;2.65;;;2.33;;
61397;SDS011;47267;48.130;-2.040;2023-06-04T04:07:22;2.97;;;2.22;;
61397;SDS011;47267;48.130;-2.040;2023-06-04T04:09:49;3.80;;;2.15;;
61397;SDS011;47267;48.130;-2.040;2023-06-04T04:12:16;3.55;;;2.30;;
61397;SDS011;47267;48.130;-2.040;2023-06-04T04:14:42;3.20;;;2.45;;
61397;SDS011;47267;48.130;-2.040;2023-06-04T04:17:07;3.55;;;2.50;;
61397;SDS011;47267;48.130;-2.040;2023-06-04T04:19:33;2.90;;;2.15;;
61397;SDS011;47267;48.130;-2.040;2023-06-04T04:21:59;2.85;;;2.08;;
61397;SDS011;47267;48.130;-2.040;2023-06-04T04:24:27;3.72;;;2.40;;
61397;SDS011;47267;48.130;-2.040;2023-06-04T04:26:54;2.80;;;2.40;;
61397;SDS011;47267;48.130;-2.040;2023-06-04T04:29:22;2.53;;;2.00;;
61397;SDS011;47267;48.130;-2.040;2023-06-04T04:31:52;2.83;;;2.20;;
61397;SDS011;47267;48.130;-2.040;2023-06-04T04:34:21;3.38;;;2.03;;
61397;SDS011;47267;48.130;-2.040;2023-06-04T04:36:48;4.07;;;2.20;;
61397;SDS011;47267;48.130;-2.040;2023-06-04T04:39:26;3.80;;;2.17;;
61397;SDS011;47267;48.130;-2.040;2023-06-04T04:41:53;3.20;;;2.17;;
61397;SDS011;47267;48.130;-2.040;2023-06-04T04:44:19;2.97;;;2.20;;
61397;SDS011;47267;48.130;-2.040;2023-06-04T04:46:45;2.83;;;2.22;;
61397;SDS011;47267;48.130;-2.040;2023-06-04T04:49:13;3.00;;;2.25;;
61397;SDS011;47267;48.130;-2.040;2023-06-04T04:51:38;2.95;;;2.20;;
61397;SDS011;47267;48.130;-2.040;2023-06-04T04:54:04;2.10;;;1.88;;
61397;SDS011;47267;48.130;-2.040;2023-06-04T04:56:32;3.50;;;2.50;;
61397;SDS011;47267;48.130;-2.040;2023-06-04T04:58:59;3.92;;;2.50;;
61397;SDS011;47267;48.130;-2.040;2023-06-04T05:01:25;2.97;;;2.00;;
61397;SDS011;47267;48.130;-2.040;2023-06-04T05:03:51;2.97;;;2.20;;
61397;SDS011;47267;48.130;-2.040;2023-06-04T05:06:17;3.08;;;2.25;;
61397;SDS011;47267;48.130;-2.040;2023-06-04T05:08:43;4.68;;;2.47;;
61397;SDS011;47267;48.130;-2.040;2023-06-04T05:11:08;3.33;;;2.20;;
61397;SDS011;47267;48.130;-2.040;2023-06-04T05:13:34;4.03;;;2.10;;
61397;SDS011;47267;48.130;-2.040;2023-06-04T05:16:01;2.80;;;2.30;;
61397;SDS011;47267;48.130;-2.040;2023-06-04T05:18:31;3.85;;;2.20;;
61397;SDS011;47267;48.130;-2.040;2023-06-04T05:20:58;2.28;;;1.67;;
61397;SDS011;47267;48.130;-2.040;2023-06-04T05:23:28;2.35;;;1.95;;
61397;SDS011;47267;48.130;-2.040;2023-06-04T05:25:59;2.63;;;2.05;;
61397;SDS011;47267;48.130;-2.040;2023-06-04T05:28:26;3.35;;;1.95;;
61397;SDS011;47267;48.130;-2.040;2023-06-04T05:30:52;3.10;;;2.30;;
61397;SDS011;47267;48.130;-2.040;2023-06-04T05:33:24;3.35;;;2.13;;
61397;SDS011;47267;48.130;-2.040;2023-06-04T05:35:50;2.40;;;1.90;;
61397;SDS011;47267;48.130;-2.040;2023-06-04T05:38:23;2.65;;;1.85;;
61397;SDS011;47267;48.130;-2.040;2023-06-04T05:40:51;3.67;;;2.22;;
61397;SDS011;47267;48.130;-2.040;2023-06-04T05:43:18;2.40;;;1.90;;
61397;SDS011;47267;48.130;-2.040;2023-06-04T05:45:45;3.60;;;2.15;;
61397;SDS011;47267;48.130;-2.040;2023-06-04T05:48:11;2.75;;;2.05;;
61397;SDS011;47267;48.130;-2.040;2023-06-04T05:50:37;3.00;;;1.85;;
61397;SDS011;47267;48.130;-2.040;2023-06-04T05:53:02;2.70;;;1.90;;
61397;SDS011;47267;48.130;-2.040;2023-06-04T05:55:28;3.67;;;2.10;;
61397;SDS011;47267;48.130;-2.040;2023-06-04T05:57:54;2.90;;;2.13;;
61397;SDS011;47267;48.130;-2.040;2023-06-04T06:00:21;3.78;;;2.10;;
61397;SDS011;47267;48.130;-2.040;2023-06-04T06:02:47;3.25;;;1.75;;
61397;SDS011;47267;48.130;-2.040;2023-06-04T06:05:17;2.47;;;1.85;;
61397;SDS011;47267;48.130;-2.040;2023-06-04T06:07:44;3.55;;;1.80;;
61397;SDS011;47267;48.130;-2.040;2023-06-04T06:10:10;3.83;;;2.25;;
61397;SDS011;47267;48.130;-2.040;2023-06-04T06:12:36;2.40;;;1.90;;
61397;SDS011;47267;48.130;-2.040;2023-06-04T06:15:02;3.00;;;2.28;;
61397;SDS011;47267;48.130;-2.040;2023-06-04T06:17:28;2.33;;;1.90;;
61397;SDS011;47267;48.130;-2.040;2023-06-04T06:19:54;2.58;;;1.92;;
61397;SDS011;47267;48.130;-2.040;2023-06-04T06:22:20;1.95;;;1.65;;
61397;SDS011;47267;48.130;-2.040;2023-06-04T06:24:47;2.42;;;1.95;;
61397;SDS011;47267;48.130;-2.040;2023-06-04T06:27:15;2.97;;;2.20;;
61397;SDS011;47267;48.130;-2.040;2023-06-04T06:29:42;3.80;;;2.03;;
61397;SDS011;47267;48.130;-2.040;2023-06-04T06:32:08;2.20;;;1.83;;
61397;SDS011;47267;48.130;-2.040;2023-06-04T06:34:34;2.63;;;1.73;;
61397;SDS011;47267;48.130;-2.040;2023-06-04T06:37:00;3.15;;;1.90;;
61397;SDS011;47267;48.130;-2.040;2023-06-04T06:39:26;3.13;;;1.80;;
61397;SDS011;47267;48.130;-2.040;2023-06-04T06:41:51;2.83;;;1.98;;
61397;SDS011;47267;48.130;-2.040;2023-06-04T06:44:17;2.90;;;1.83;;
61397;SDS011;47267;48.130;-2.040;2023-06-04T06:46:43;2.53;;;1.90;;
61397;SDS011;47267;48.130;-2.040;2023-06-04T06:49:09;2.50;;;1.80;;
61397;SDS011;47267;48.130;-2.040;2023-06-04T06:51:35;3.38;;;1.73;;
61397;SDS011;47267;48.130;-2.040;2023-06-04T06:54:00;2.92;;;1.98;;
61397;SDS011;47267;48.130;-2.040;2023-06-04T06:56:26;3.00;;;1.83;;
61397;SDS011;47267;48.130;-2.040;2023-06-04T06:58:52;3.90;;;2.13;;
61397;SDS011;47267;48.130;-2.040;2023-06-04T07:01:17;2.60;;;1.65;;
61397;SDS011;47267;48.130;-2.040;2023-06-04T07:03:43;3.67;;;1.98;;
61397;SDS011;47267;48.130;-2.040;2023-06-04T07:06:08;2.78;;;2.00;;
61397;SDS011;47267;48.130;-2.040;2023-06-04T07:08:34;7.00;;;2.20;;
61397;SDS011;47267;48.130;-2.040;2023-06-04T07:11:03;2.90;;;2.00;;
61397;SDS011;47267;48.130;-2.040;2023-06-04T07:13:29;3.40;;;1.60;;
61397;SDS011;47267;48.130;-2.040;2023-06-04T07:15:57;2.70;;;1.73;;
61397;SDS011;47267;48.130;-2.040;2023-06-04T07:18:24;3.72;;;1.80;;
61397;SDS011;47267;48.130;-2.040;2023-06-04T07:20:49;4.72;;;2.15;;
61397;SDS011;47267;48.130;-2.040;2023-06-04T07:23:17;4.63;;;2.17;;
61397;SDS011;47267;48.130;-2.040;2023-06-04T07:25:43;3.60;;;2.20;;
61397;SDS011;47267;48.130;-2.040;2023-06-04T07:28:09;4.45;;;2.20;;
61397;SDS011;47267;48.130;-2.040;2023-06-04T07:30:34;3.40;;;1.90;;
61397;SDS011;47267;48.130;-2.040;2023-06-04T07:33:01;2.58;;;1.73;;
61397;SDS011;47267;48.130;-2.040;2023-06-04T07:35:27;3.95;;;2.03;;
61397;SDS011;47267;48.130;-2.040;2023-06-04T07:37:53;4.88;;;2.38;;
61397;SDS011;47267;48.130;-2.040;2023-06-04T07:40:18;4.90;;;1.80;;
61397;SDS011;47267;48.130;-2.040;2023-06-04T07:42:45;4.50;;;2.22;;
61397;SDS011;47267;48.130;-2.040;2023-06-04T07:45:12;4.82;;;2.45;;
61397;SDS011;47267;48.130;-2.040;2023-06-04T07:47:38;5.15;;;2.58;;
61397;SDS011;47267;48.130;-2.040;2023-06-04T07:50:04;5.97;;;2.55;;
61397;SDS011;47267;48.130;-2.040;2023-06-04T07:52:30;4.43;;;2.20;;
61397;SDS011;47267;48.130;-2.040;2023-06-04T07:54:57;5.88;;;2.50;;
61397;SDS011;47267;48.130;-2.040;2023-06-04T07:57:23;8.00;;;2.83;;
61397;SDS011;47267;48.130;-2.040;2023-06-04T07:59:49;6.18;;;3.08;;
61397;SDS011;47267;48.130;-2.040;2023-06-04T08:02:14;7.53;;;2.83;;
61397;SDS011;47267;48.130;-2.040;2023-06-04T08:04:40;6.22;;;2.70;;
61397;SDS011;47267;48.130;-2.040;2023-06-04T08:07:06;9.02;;;2.92;;
61397;SDS011;47267;48.130;-2.040;2023-06-04T08:09:32;9.95;;;3.15;;
61397;SDS011;47267;48.130;-2.040;2023-06-04T08:11:57;5.25;;;2.80;;
61397;SDS011;47267;48.130;-2.040;2023-06-04T08:14:23;7.32;;;2.83;;
61397;SDS011;47267;48.130;-2.040;2023-06-04T08:16:52;9.88;;;3.45;;
61397;SDS011;47267;48.130;-2.040;2023-06-04T08:19:18;8.52;;;3.10;;
61397;SDS011;47267;48.130;-2.040;2023-06-04T08:21:43;6.47;;;3.00;;
61397;SDS011;47267;48.130;-2.040;2023-06-04T08:24:10;7.93;;;2.92;;
61397;SDS011;47267;48.130;-2.040;2023-06-04T08:26:36;8.00;;;3.10;;
61397;SDS011;47267;48.130;-2.040;2023-06-04T08:29:02;8.10;;;3.10;;
61397;SDS011;47267;48.130;-2.040;2023-06-04T08:31:31;11.43;;;3.20;;
61397;SDS011;47267;48.130;-2.040;2023-06-04T08:33:57;6.22;;;2.75;;
61397;SDS011;47267;48.130;-2.040;2023-06-04T08:36:23;8.48;;;2.95;;
61397;SDS011;47267;48.130;-2.040;2023-06-04T08:38:49;7.63;;;2.75;;
61397;SDS011;47267;48.130;-2.040;2023-06-04T08:41:18;7.97;;;2.92;;
61397;SDS011;47267;48.130;-2.040;2023-06-04T08:44:18;6.35;;;2.90;;
61397;SDS011;47267;48.130;-2.040;2023-06-04T08:46:44;8.50;;;3.17;;
61397;SDS011;47267;48.130;-2.040;2023-06-04T08:49:11;6.82;;;2.97;;
61397;SDS011;47267;48.130;-2.040;2023-06-04T08:51:38;5.70;;;2.85;;
61397;SDS011;47267;48.130;-2.040;2023-06-04T08:54:07;6.15;;;2.83;;
61397;SDS011;47267;48.130;-2.040;2023-06-04T08:56:33;7.45;;;2.85;;
61397;SDS011;47267;48.130;-2.040;2023-06-04T08:59:01;7.05;;;2.72;;
61397;SDS011;47267;48.130;-2.040;2023-06-04T09:01:32;6.35;;;2.70;;
61397;SDS011;47267;48.130;-2.040;2023-06-04T09:04:00;5.30;;;2.63;;
61397;SDS011;47267;48.130;-2.040;2023-06-04T09:06:29;6.88;;;2.65;;
61397;SDS011;47267;48.130;-2.040;2023-06-04T09:08:57;6.53;;;2.60;;
61397;SDS011;47267;48.130;-2.040;2023-06-04T09:11:29;7.03;;;2.90;;
61397;SDS011;47267;48.130;-2.040;2023-06-04T09:14:01;8.13;;;2.95;;
61397;SDS011;47267;48.130;-2.040;2023-06-04T09:16:31;5.13;;;2.42;;
61397;SDS011;47267;48.130;-2.040;2023-06-04T09:19:02;5.07;;;2.42;;
61397;SDS011;47267;48.130;-2.040;2023-06-04T09:21:29;5.47;;;2.25;;
61397;SDS011;47267;48.130;-2.040;2023-06-04T09:23:55;5.60;;;2.70;;
61397;SDS011;47267;48.130;-2.040;2023-06-04T09:26:20;6.07;;;2.60;;
61397;SDS011;47267;48.130;-2.040;2023-06-04T09:28:46;5.97;;;2.47;;
61397;SDS011;47267;48.130;-2.040;2023-06-04T09:31:15;6.75;;;2.80;;
61397;SDS011;47267;48.130;-2.040;2023-06-04T09:33:50;5.55;;;2.85;;
61397;SDS011;47267;48.130;-2.040;2023-06-04T09:36:16;5.50;;;2.10;;
61397;SDS011;47267;48.130;-2.040;2023-06-04T09:38:42;4.10;;;2.47;;
61397;SDS011;47267;48.130;-2.040;2023-06-04T09:41:12;4.82;;;2.67;;
61397;SDS011;47267;48.130;-2.040;2023-06-04T09:43:41;6.78;;;2.72;;
61397;SDS011;47267;48.130;-2.040;2023-06-04T09:46:09;5.00;;;2.55;;
61397;SDS011;47267;48.130;-2.040;2023-06-04T09:48:36;5.47;;;2.95;;
61397;SDS011;47267;48.130;-2.040;2023-06-04T09:51:14;4.70;;;2.17;;
61397;SDS011;47267;48.130;-2.040;2023-06-04T09:53:43;5.25;;;2.38;;
61397;SDS011;47267;48.130;-2.040;2023-06-04T09:56:22;4.35;;;2.25;;
61397;SDS011;47267;48.130;-2.040;2023-06-04T09:58:53;4.22;;;2.25;;
61397;SDS011;47267;48.130;-2.040;2023-06-04T10:01:20;5.32;;;2.40;;
61397;SDS011;47267;48.130;-2.040;2023-06-04T10:03:50;6.95;;;2.70;;
61397;SDS011;47267;48.130;-2.040;2023-06-04T10:06:17;5.78;;;2.40;;
61397;SDS011;47267;48.130;-2.040;2023-06-04T10:08:45;4.50;;;2.05;;
61397;SDS011;47267;48.130;-2.040;2023-06-04T10:11:13;5.20;;;2.28;;
61397;SDS011;47267;48.130;-2.040;2023-06-04T10:13:53;6.05;;;2.50;;
61397;SDS011;47267;48.130;-2.040;2023-06-04T10:16:25;4.53;;;2.20;;
61397;SDS011;47267;48.130;-2.040;2023-06-04T10:18:54;7.25;;;2.30;;
61397;SDS011;47267;48.130;-2.040;2023-06-04T10:21:21;4.88;;;2.45;;
61397;SDS011;47267;48.130;-2.040;2023-06-04T10:23:48;4.28;;;2.47;;
61397;SDS011;47267;48.130;-2.040;2023-06-04T10:26:15;3.47;;;2.30;;
61397;SDS011;47267;48.130;-2.040;2023-06-04T10:28:42;3.67;;;2.28;;
61397;SDS011;47267;48.130;-2.040;2023-06-04T10:31:11;4.45;;;2.00;;
61397;SDS011;47267;48.130;-2.040;2023-06-04T10:33:39;3.53;;;2.38;;
61397;SDS011;47267;48.130;-2.040;2023-06-04T10:36:18;6.22;;;2.25;;
61397;SDS011;47267;48.130;-2.040;2023-06-04T10:38:51;4.35;;;2.40;;
61397;SDS011;47267;48.130;-2.040;2023-06-04T10:41:19;3.78;;;2.20;;
61397;SDS011;47267;48.130;-2.040;2023-06-04T10:43:48;4.47;;;2.10;;
61397;SDS011;47267;48.130;-2.040;2023-06-04T10:46:16;4.78;;;1.98;;
61397;SDS011;47267;48.130;-2.040;2023-06-04T10:48:50;4.50;;;2.13;;
61397;SDS011;47267;48.130;-2.040;2023-06-04T10:51:28;4.55;;;2.13;;
61397;SDS011;47267;48.130;-2.040;2023-06-04T10:53:56;4.75;;;2.40;;
61397;SDS011;47267;48.130;-2.040;2023-06-04T10:56:29;8.35;;;2.60;;
61397;SDS011;47267;48.130;-2.040;2023-06-04T10:59:00;4.85;;;2.20;;
61397;SDS011;47267;48.130;-2.040;2023-06-04T11:01:37;5.68;;;2.47;;
61397;SDS011;47267;48.130;-2.040;2023-06-04T11:04:03;6.18;;;3.70;;
61397;SDS011;47267;48.130;-2.040;2023-06-04T11:06:29;4.85;;;2.55;;
61397;SDS011;47267;48.130;-2.040;2023-06-04T11:09:04;4.10;;;2.58;;
61397;SDS011;47267;48.130;-2.040;2023-06-04T11:11:30;4.43;;;2.60;;
61397;SDS011;47267;48.130;-2.040;2023-06-04T11:14:06;3.67;;;2.30;;
61397;SDS011;47267;48.130;-2.040;2023-06-04T11:16:42;3.55;;;2.10;;
61397;SDS011;47267;48.130;-2.040;2023-06-04T11:19:08;6.18;;;2.70;;
61397;SDS011;47267;48.130;-2.040;2023-06-04T11:21:34;4.25;;;2.53;;
61397;SDS011;47267;48.130;-2.040;2023-06-04T11:24:03;4.90;;;2.63;;
61397;SDS011;47267;48.130;-2.040;2023-06-04T11:26:38;3.85;;;2.47;;
61397;SDS011;47267;48.130;-2.040;2023-06-04T11:29:07;4.28;;;2.50;;
61397;SDS011;47267;48.130;-2.040;2023-06-04T11:31:44;6.45;;;2.33;;
61397;SDS011;47267;48.130;-2.040;2023-06-04T11:34:21;5.50;;;2.88;;
61397;SDS011;47267;48.130;-2.040;2023-06-04T11:36:51;4.57;;;2.67;;
61397;SDS011;47267;48.130;-2.040;2023-06-04T11:39:18;4.88;;;2.88;;
61397;SDS011;47267;48.130;-2.040;2023-06-04T11:41:44;3.38;;;2.38;;
61397;SDS011;47267;48.130;-2.040;2023-06-04T11:44:11;4.38;;;2.50;;
61397;SDS011;47267;48.130;-2.040;2023-06-04T11:46:41;4.22;;;2.70;;
61397;SDS011;47267;48.130;-2.040;2023-06-04T11:49:16;4.15;;;2.65;;
61397;SDS011;47267;48.130;-2.040;2023-06-04T11:51:49;7.45;;;3.42;;
61397;SDS011;47267;48.130;-2.040;2023-06-04T11:54:16;4.63;;;2.60;;
61397;SDS011;47267;48.130;-2.040;2023-06-04T11:56:43;5.20;;;2.70;;
61397;SDS011;47267;48.130;-2.040;2023-06-04T11:59:10;4.75;;;2.63;;
61397;SDS011;47267;48.130;-2.040;2023-06-04T12:01:43;3.75;;;2.85;;
61397;SDS011;47267;48.130;-2.040;2023-06-04T12:04:16;4.90;;;3.03;;
61397;SDS011;47267;48.130;-2.040;2023-06-04T12:06:50;4.78;;;3.08;;
61397;SDS011;47267;48.130;-2.040;2023-06-04T12:09:21;3.97;;;2.58;;
61397;SDS011;47267;48.130;-2.040;2023-06-04T12:12:02;4.03;;;2.65;;
61397;SDS011;47267;48.130;-2.040;2023-06-04T12:14:30;4.10;;;2.65;;
61397;SDS011;47267;48.130;-2.040;2023-06-04T12:17:05;4.07;;;2.90;;
61397;SDS011;47267;48.130;-2.040;2023-06-04T12:19:31;5.65;;;3.30;;
61397;SDS011;47267;48.130;-2.040;2023-06-04T12:22:02;4.40;;;2.80;;
61397;SDS011;47267;48.130;-2.040;2023-06-04T12:24:32;4.05;;;2.92;;
61397;SDS011;47267;48.130;-2.040;2023-06-04T12:27:03;5.60;;;3.40;;
61397;SDS011;47267;48.130;-2.040;2023-06-04T12:29:31;6.15;;;3.03;;
61397;SDS011;47267;48.130;-2.040;2023-06-04T12:32:05;5.70;;;3.33;;
61397;SDS011;47267;48.130;-2.040;2023-06-04T12:34:41;4.35;;;3.22;;
61397;SDS011;47267;48.130;-2.040;2023-06-04T12:37:06;4.55;;;3.08;;
61397;SDS011;47267;48.130;-2.040;2023-06-04T12:39:33;5.28;;;3.15;;
61397;SDS011;47267;48.130;-2.040;2023-06-04T12:42:02;4.57;;;3.35;;
61397;SDS011;47267;48.130;-2.040;2023-06-04T12:44:33;4.45;;;3.03;;
61397;SDS011;47267;48.130;-2.040;2023-06-04T12:47:03;4.13;;;3.08;;
61397;SDS011;47267;48.130;-2.040;2023-06-04T12:49:29;4.85;;;2.80;;
61397;SDS011;47267;48.130;-2.040;2023-06-04T12:51:54;4.18;;;3.03;;
61397;SDS011;47267;48.130;-2.040;2023-06-04T12:54:20;5.57;;;3.67;;
61397;SDS011;47267;48.130;-2.040;2023-06-04T12:56:46;5.50;;;3.38;;
61397;SDS011;47267;48.130;-2.040;2023-06-04T12:59:12;5.60;;;3.20;;
61397;SDS011;47267;48.130;-2.040;2023-06-04T13:01:37;4.78;;;3.05;;
61397;SDS011;47267;48.130;-2.040;2023-06-04T13:04:03;4.97;;;3.17;;
61397;SDS011;47267;48.130;-2.040;2023-06-04T13:06:29;4.75;;;3.17;;
61397;SDS011;47267;48.130;-2.040;2023-06-04T13:08:55;5.82;;;3.85;;
61397;SDS011;47267;48.130;-2.040;2023-06-04T13:11:21;4.75;;;3.15;;
61397;SDS011;47267;48.130;-2.040;2023-06-04T13:13:47;3.88;;;3.15;;
61397;SDS011;47267;48.130;-2.040;2023-06-04T13:16:13;4.50;;;3.10;;
61397;SDS011;47267;48.130;-2.040;2023-06-04T13:18:39;4.85;;;3.20;;
61397;SDS011;47267;48.130;-2.040;2023-06-04T13:21:05;4.00;;;3.10;;
61397;SDS011;47267;48.130;-2.040;2023-06-04T13:23:31;5.60;;;3.58;;
61397;SDS011;47267;48.130;-2.040;2023-06-04T13:25:56;4.43;;;3.17;;
61397;SDS011;47267;48.130;-2.040;2023-06-04T13:28:22;4.00;;;3.15;;
61397;SDS011;47267;48.130;-2.040;2023-06-04T13:30:48;4.32;;;3.00;;
61397;SDS011;47267;48.130;-2.040;2023-06-04T13:33:14;5.80;;;3.00;;
61397;SDS011;47267;48.130;-2.040;2023-06-04T13:35:39;4.47;;;3.08;;
61397;SDS011;47267;48.130;-2.040;2023-06-04T13:38:07;4.65;;;3.08;;
61397;SDS011;47267;48.130;-2.040;2023-06-04T13:40:36;5.65;;;3.35;;
61397;SDS011;47267;48.130;-2.040;2023-06-04T13:43:02;4.28;;;3.00;;
61397;SDS011;47267;48.130;-2.040;2023-06-04T13:45:28;4.95;;;3.08;;
61397;SDS011;47267;48.130;-2.040;2023-06-04T13:47:53;4.68;;;3.22;;
61397;SDS011;47267;48.130;-2.040;2023-06-04T13:50:19;4.95;;;3.20;;
61397;SDS011;47267;48.130;-2.040;2023-06-04T13:52:45;3.70;;;2.83;;
61397;SDS011;47267;48.130;-2.040;2023-06-04T13:55:12;4.30;;;2.97;;
61397;SDS011;47267;48.130;-2.040;2023-06-04T13:57:38;4.22;;;3.25;;
61397;SDS011;47267;48.130;-2.040;2023-06-04T14:00:04;6.50;;;3.13;;
61397;SDS011;47267;48.130;-2.040;2023-06-04T14:02:32;4.35;;;3.30;;
61397;SDS011;47267;48.130;-2.040;2023-06-04T14:04:57;4.18;;;3.20;;
61397;SDS011;47267;48.130;-2.040;2023-06-04T14:07:23;4.63;;;3.40;;
61397;SDS011;47267;48.130;-2.040;2023-06-04T14:09:49;4.80;;;3.55;;
61397;SDS011;47267;48.130;-2.040;2023-06-04T14:12:20;4.38;;;3.00;;
61397;SDS011;47267;48.130;-2.040;2023-06-04T14:14:48;4.15;;;2.95;;
61397;SDS011;47267;48.130;-2.040;2023-06-04T14:17:14;5.30;;;3.33;;
61397;SDS011;47267;48.130;-2.040;2023-06-04T14:19:40;4.75;;;3.20;;
61397;SDS011;47267;48.130;-2.040;2023-06-04T14:22:06;5.45;;;3.42;;
61397;SDS011;47267;48.130;-2.040;2023-06-04T14:24:31;3.65;;;3.00;;
61397;SDS011;47267;48.130;-2.040;2023-06-04T14:26:57;4.78;;;3.10;;
61397;SDS011;47267;48.130;-2.040;2023-06-04T14:29:23;4.85;;;3.30;;
61397;SDS011;47267;48.130;-2.040;2023-06-04T14:31:48;4.68;;;3.17;;
61397;SDS011;47267;48.130;-2.040;2023-06-04T14:34:14;3.53;;;2.72;;
61397;SDS011;47267;48.130;-2.040;2023-06-04T14:36:40;4.72;;;3.22;;
61397;SDS011;47267;48.130;-2.040;2023-06-04T14:39:06;4.50;;;3.17;;
61397;SDS011;47267;48.130;-2.040;2023-06-04T14:41:31;4.38;;;3.20;;
61397;SDS011;47267;48.130;-2.040;2023-06-04T14:43:57;3.78;;;3.05;;